sensor_id;sensor_type;location;lat;lon;timestamp;P1;durP1;ratioP1;P2;durP2;ratioP2
52838;SDS011;39219;53.678;9.856;2022-08-01T00:00:07;20.55;;;13.43;;
52838;SDS011;39219;53.678;9.856;2022-08-01T00:02:34;18.08;;;12.85;;
52838;SDS011;39219;53.678;9.856;2022-08-01T00:05:02;18.20;;;12.25;;
52838;SDS011;39219;53.678;9.856;2022-08-01T00:07:30;18.83;;;12.23;;
52838;SDS011;39219;53.678;9.856;2022-08-01T00:09:57;20.00;;;13.25;;
52838;SDS011;39219;53.678;9.856;2022-08-01T00:12:25;19.95;;;13.38;;
52838;SDS011;39219;53.678;9.856;2022-08-01T00:14:51;22.40;;;14.10;;
52838;SDS011;39219;53.678;9.856;2022-08-01T00:17:18;19.92;;;13.48;;
52838;SDS011;39219;53.678;9.856;2022-08-01T00:19:45;19.45;;;12.90;;
52838;SDS011;39219;53.678;9.856;2022-08-01T00:22:11;21.35;;;13.63;;
52838;SDS011;39219;53.678;9.856;2022-08-01T00:24:38;20.45;;;13.32;;
52838;SDS011;39219;53.678;9.856;2022-08-01T00:27:04;19.88;;;13.25;;
52838;SDS011;39219;53.678;9.856;2022-08-01T00:29:32;18.92;;;12.50;;
52838;SDS011;39219;53.678;9.856;2022-08-01T00:31:59;21.33;;;12.40;;
52838;SDS011;39219;53.678;9.856;2022-08-01T00:34:25;20.52;;;12.85;;
52838;SDS011;39219;53.678;9.856;2022-08-01T00:36:52;20.92;;;12.65;;
52838;SDS011;39219;53.678;9.856;2022-08-01T00:39:18;19.67;;;12.02;;
52838;SDS011;39219;53.678;9.856;2022-08-01T00:41:45;20.45;;;12.00;;
52838;SDS011;39219;53.678;9.856;2022-08-01T00:44:11;19.30;;;12.15;;
52838;SDS011;39219;53.678;9.856;2022-08-01T00:46:39;18.23;;;11.40;;
52838;SDS011;39219;53.678;9.856;2022-08-01T00:49:05;18.05;;;11.00;;
52838;SDS011;39219;53.678;9.856;2022-08-01T00:51:32;17.70;;;10.80;;
52838;SDS011;39219;53.678;9.856;2022-08-01T00:53:59;17.30;;;10.77;;
52838;SDS011;39219;53.678;9.856;2022-08-01T00:56:27;17.55;;;10.95;;
52838;SDS011;39219;53.678;9.856;2022-08-01T00:58:55;15.43;;;10.48;;
52838;SDS011;39219;53.678;9.856;2022-08-01T01:01:21;15.82;;;10.70;;
52838;SDS011;39219;53.678;9.856;2022-08-01T01:03:49;18.77;;;11.30;;
52838;SDS011;39219;53.678;9.856;2022-08-01T01:06:28;15.55;;;9.77;;
52838;SDS011;39219;53.678;9.856;2022-08-01T01:09:10;16.90;;;10.90;;
52838;SDS011;39219;53.678;9.856;2022-08-01T01:11:44;17.67;;;10.65;;
52838;SDS011;39219;53.678;9.856;2022-08-01T01:14:16;16.92;;;10.85;;
52838;SDS011;39219;53.678;9.856;2022-08-01T01:16:49;17.67;;;10.82;;
52838;SDS011;39219;53.678;9.856;2022-08-01T01:19:20;16.38;;;10.80;;
52838;SDS011;39219;53.678;9.856;2022-08-01T01:22:00;18.33;;;10.93;;
52838;SDS011;39219;53.678;9.856;2022-08-01T01:24:37;19.00;;;11.48;;
52838;SDS011;39219;53.678;9.856;2022-08-01T01:27:14;20.38;;;10.65;;
52838;SDS011;39219;53.678;9.856;2022-08-01T01:29:50;18.52;;;10.95;;
52838;SDS011;39219;53.678;9.856;2022-08-01T01:32:21;16.73;;;10.25;;
52838;SDS011;39219;53.678;9.856;2022-08-01T01:34:51;18.48;;;10.23;;
52838;SDS011;39219;53.678;9.856;2022-08-01T01:37:21;16.27;;;10.77;;
52838;SDS011;39219;53.678;9.856;2022-08-01T01:39:51;17.60;;;11.07;;
52838;SDS011;39219;53.678;9.856;2022-08-01T01:42:20;18.92;;;11.18;;
52838;SDS011;39219;53.678;9.856;2022-08-01T01:44:51;20.67;;;10.93;;
52838;SDS011;39219;53.678;9.856;2022-08-01T01:47:19;17.05;;;10.45;;
52838;SDS011;39219;53.678;9.856;2022-08-01T01:49:47;16.38;;;10.15;;
52838;SDS011;39219;53.678;9.856;2022-08-01T01:52:16;18.15;;;10.45;;
52838;SDS011;39219;53.678;9.856;2022-08-01T01:54:45;17.10;;;10.20;;
52838;SDS011;39219;53.678;9.856;2022-08-01T01:57:15;16.55;;;9.27;;
52838;SDS011;39219;53.678;9.856;2022-08-01T01:59:42;18.52;;;9.90;;
52838;SDS011;39219;53.678;9.856;2022-08-01T02:02:13;15.57;;;9.18;;
52838;SDS011;39219;53.678;9.856;2022-08-01T02:04:42;16.98;;;9.60;;
52838;SDS011;39219;53.678;9.856;2022-08-01T02:07:12;14.75;;;9.40;;
52838;SDS011;39219;53.678;9.856;2022-08-01T02:09:42;17.45;;;9.27;;
52838;SDS011;39219;53.678;9.856;2022-08-01T02:12:12;15.10;;;9.45;;
52838;SDS011;39219;53.678;9.856;2022-08-01T02:14:40;16.08;;;10.00;;
52838;SDS011;39219;53.678;9.856;2022-08-01T02:17:10;16.35;;;9.52;;
52838;SDS011;39219;53.678;9.856;2022-08-01T02:19:39;18.65;;;9.27;;
52838;SDS011;39219;53.678;9.856;2022-08-01T02:22:08;16.60;;;9.25;;
52838;SDS011;39219;53.678;9.856;2022-08-01T02:24:37;14.45;;;10.23;;
52838;SDS011;39219;53.678;9.856;2022-08-01T02:27:10;16.25;;;9.38;;
52838;SDS011;39219;53.678;9.856;2022-08-01T02:29:41;16.17;;;9.13;;
52838;SDS011;39219;53.678;9.856;2022-08-01T02:32:10;13.90;;;9.25;;
52838;SDS011;39219;53.678;9.856;2022-08-01T02:34:42;14.15;;;8.98;;
52838;SDS011;39219;53.678;9.856;2022-08-01T02:37:13;12.85;;;8.55;;
52838;SDS011;39219;53.678;9.856;2022-08-01T02:39:41;13.35;;;8.43;;
52838;SDS011;39219;53.678;9.856;2022-08-01T02:42:09;12.05;;;8.77;;
52838;SDS011;39219;53.678;9.856;2022-08-01T02:44:39;13.77;;;8.30;;
52838;SDS011;39219;53.678;9.856;2022-08-01T02:47:09;12.48;;;7.25;;
52838;SDS011;39219;53.678;9.856;2022-08-01T02:49:37;12.10;;;7.90;;
52838;SDS011;39219;53.678;9.856;2022-08-01T02:52:08;15.40;;;8.30;;
52838;SDS011;39219;53.678;9.856;2022-08-01T02:54:38;11.77;;;7.72;;
52838;SDS011;39219;53.678;9.856;2022-08-01T02:57:06;15.10;;;8.35;;
52838;SDS011;39219;53.678;9.856;2022-08-01T02:59:35;12.07;;;8.30;;
52838;SDS011;39219;53.678;9.856;2022-08-01T03:02:04;13.18;;;8.25;;
52838;SDS011;39219;53.678;9.856;2022-08-01T03:04:33;12.52;;;7.47;;
52838;SDS011;39219;53.678;9.856;2022-08-01T03:07:01;14.13;;;8.35;;
52838;SDS011;39219;53.678;9.856;2022-08-01T03:09:32;13.43;;;8.20;;
52838;SDS011;39219;53.678;9.856;2022-08-01T03:12:12;11.85;;;7.13;;
52838;SDS011;39219;53.678;9.856;2022-08-01T03:14:42;13.15;;;7.53;;
52838;SDS011;39219;53.678;9.856;2022-08-01T03:17:10;14.50;;;6.90;;
52838;SDS011;39219;53.678;9.856;2022-08-01T03:19:38;12.95;;;6.80;;
52838;SDS011;39219;53.678;9.856;2022-08-01T03:22:05;9.20;;;6.40;;
52838;SDS011;39219;53.678;9.856;2022-08-01T03:24:35;10.80;;;6.15;;
52838;SDS011;39219;53.678;9.856;2022-08-01T03:27:03;9.57;;;6.00;;
52838;SDS011;39219;53.678;9.856;2022-08-01T03:29:30;11.98;;;6.20;;
52838;SDS011;39219;53.678;9.856;2022-08-01T03:31:58;10.18;;;5.82;;
52838;SDS011;39219;53.678;9.856;2022-08-01T03:34:27;9.93;;;5.47;;
52838;SDS011;39219;53.678;9.856;2022-08-01T03:36:55;9.43;;;5.47;;
52838;SDS011;39219;53.678;9.856;2022-08-01T03:39:27;9.95;;;5.43;;
52838;SDS011;39219;53.678;9.856;2022-08-01T03:41:59;9.95;;;5.63;;
52838;SDS011;39219;53.678;9.856;2022-08-01T03:44:31;10.35;;;5.40;;
52838;SDS011;39219;53.678;9.856;2022-08-01T03:47:04;9.77;;;5.43;;
52838;SDS011;39219;53.678;9.856;2022-08-01T03:49:35;8.82;;;5.55;;
52838;SDS011;39219;53.678;9.856;2022-08-01T03:52:07;9.35;;;5.10;;
52838;SDS011;39219;53.678;9.856;2022-08-01T03:54:35;9.98;;;5.65;;
52838;SDS011;39219;53.678;9.856;2022-08-01T03:57:06;6.57;;;4.70;;
52838;SDS011;39219;53.678;9.856;2022-08-01T03:59:34;8.55;;;5.13;;
52838;SDS011;39219;53.678;9.856;2022-08-01T04:02:02;7.70;;;4.50;;
52838;SDS011;39219;53.678;9.856;2022-08-01T04:04:30;10.23;;;4.75;;
52838;SDS011;39219;53.678;9.856;2022-08-01T04:06:57;8.73;;;4.72;;
52838;SDS011;39219;53.678;9.856;2022-08-01T04:09:29;7.93;;;4.38;;
52838;SDS011;39219;53.678;9.856;2022-08-01T04:11:56;6.03;;;3.88;;
52838;SDS011;39219;53.678;9.856;2022-08-01T04:14:23;7.45;;;3.78;;
52838;SDS011;39219;53.678;9.856;2022-08-01T04:16:50;5.40;;;3.90;;
52838;SDS011;39219;53.678;9.856;2022-08-01T04:19:16;6.20;;;3.47;;
52838;SDS011;39219;53.678;9.856;2022-08-01T04:21:43;4.80;;;3.45;;
52838;SDS011;39219;53.678;9.856;2022-08-01T04:24:12;6.38;;;3.40;;
52838;SDS011;39219;53.678;9.856;2022-08-01T04:26:41;5.82;;;3.47;;
52838;SDS011;39219;53.678;9.856;2022-08-01T04:29:11;5.55;;;3.22;;
52838;SDS011;39219;53.678;9.856;2022-08-01T04:31:45;4.32;;;3.05;;
52838;SDS011;39219;53.678;9.856;2022-08-01T04:34:14;7.85;;;3.30;;
52838;SDS011;39219;53.678;9.856;2022-08-01T04:36:43;3.53;;;2.72;;
52838;SDS011;39219;53.678;9.856;2022-08-01T04:39:11;6.30;;;3.22;;
52838;SDS011;39219;53.678;9.856;2022-08-01T04:41:39;7.68;;;3.10;;
52838;SDS011;39219;53.678;9.856;2022-08-01T04:44:06;5.15;;;3.10;;
52838;SDS011;39219;53.678;9.856;2022-08-01T04:46:33;6.25;;;3.15;;
52838;SDS011;39219;53.678;9.856;2022-08-01T04:49:03;7.78;;;2.97;;
52838;SDS011;39219;53.678;9.856;2022-08-01T04:51:31;8.50;;;2.70;;
52838;SDS011;39219;53.678;9.856;2022-08-01T04:53:59;5.00;;;2.63;;
52838;SDS011;39219;53.678;9.856;2022-08-01T04:56:26;3.85;;;2.75;;
52838;SDS011;39219;53.678;9.856;2022-08-01T04:58:52;4.63;;;2.75;;
52838;SDS011;39219;53.678;9.856;2022-08-01T05:01:33;5.93;;;2.70;;
52838;SDS011;39219;53.678;9.856;2022-08-01T05:03:59;4.57;;;2.50;;
52838;SDS011;39219;53.678;9.856;2022-08-01T05:06:27;6.18;;;2.83;;
52838;SDS011;39219;53.678;9.856;2022-08-01T05:08:56;4.20;;;2.70;;
52838;SDS011;39219;53.678;9.856;2022-08-01T05:11:22;9.00;;;3.15;;
52838;SDS011;39219;53.678;9.856;2022-08-01T05:13:49;8.70;;;3.00;;
52838;SDS011;39219;53.678;9.856;2022-08-01T05:16:16;4.13;;;2.83;;
52838;SDS011;39219;53.678;9.856;2022-08-01T05:18:42;6.68;;;3.13;;
52838;SDS011;39219;53.678;9.856;2022-08-01T05:21:09;5.60;;;3.03;;
52838;SDS011;39219;53.678;9.856;2022-08-01T05:23:37;5.88;;;3.30;;
52838;SDS011;39219;53.678;9.856;2022-08-01T05:26:03;7.63;;;3.42;;
52838;SDS011;39219;53.678;9.856;2022-08-01T05:28:30;5.10;;;3.22;;
52838;SDS011;39219;53.678;9.856;2022-08-01T05:30:56;5.68;;;3.40;;
52838;SDS011;39219;53.678;9.856;2022-08-01T05:33:23;7.10;;;3.28;;
52838;SDS011;39219;53.678;9.856;2022-08-01T05:35:49;6.57;;;2.90;;
52838;SDS011;39219;53.678;9.856;2022-08-01T05:38:16;4.20;;;2.60;;
52838;SDS011;39219;53.678;9.856;2022-08-01T05:40:43;6.78;;;3.40;;
52838;SDS011;39219;53.678;9.856;2022-08-01T05:43:10;8.68;;;3.70;;
52838;SDS011;39219;53.678;9.856;2022-08-01T05:45:36;7.78;;;3.35;;
52838;SDS011;39219;53.678;9.856;2022-08-01T05:48:03;8.40;;;3.38;;
52838;SDS011;39219;53.678;9.856;2022-08-01T05:50:30;8.25;;;3.17;;
52838;SDS011;39219;53.678;9.856;2022-08-01T05:52:56;8.88;;;3.25;;
52838;SDS011;39219;53.678;9.856;2022-08-01T05:55:23;9.10;;;3.10;;
52838;SDS011;39219;53.678;9.856;2022-08-01T05:57:51;8.57;;;3.35;;
52838;SDS011;39219;53.678;9.856;2022-08-01T06:00:17;10.65;;;3.30;;
52838;SDS011;39219;53.678;9.856;2022-08-01T06:02:44;8.38;;;3.40;;
52838;SDS011;39219;53.678;9.856;2022-08-01T06:05:10;11.57;;;3.40;;
52838;SDS011;39219;53.678;9.856;2022-08-01T06:07:37;8.18;;;3.40;;
52838;SDS011;39219;53.678;9.856;2022-08-01T06:10:05;10.40;;;4.10;;
52838;SDS011;39219;53.678;9.856;2022-08-01T06:12:32;13.45;;;5.10;;
52838;SDS011;39219;53.678;9.856;2022-08-01T06:15:00;11.88;;;4.90;;
52838;SDS011;39219;53.678;9.856;2022-08-01T06:17:27;15.00;;;5.22;;
52838;SDS011;39219;53.678;9.856;2022-08-01T06:19:53;12.43;;;5.18;;
52838;SDS011;39219;53.678;9.856;2022-08-01T06:22:20;14.48;;;6.07;;
52838;SDS011;39219;53.678;9.856;2022-08-01T06:24:47;12.77;;;7.03;;
52838;SDS011;39219;53.678;9.856;2022-08-01T06:27:13;16.23;;;7.00;;
52838;SDS011;39219;53.678;9.856;2022-08-01T06:29:40;14.32;;;7.18;;
52838;SDS011;39219;53.678;9.856;2022-08-01T06:32:09;14.00;;;7.40;;
52838;SDS011;39219;53.678;9.856;2022-08-01T06:34:35;13.93;;;7.35;;
52838;SDS011;39219;53.678;9.856;2022-08-01T06:37:02;16.15;;;7.70;;
52838;SDS011;39219;53.678;9.856;2022-08-01T06:39:28;14.70;;;7.93;;
52838;SDS011;39219;53.678;9.856;2022-08-01T06:41:56;15.25;;;7.95;;
52838;SDS011;39219;53.678;9.856;2022-08-01T06:44:23;14.25;;;7.35;;
52838;SDS011;39219;53.678;9.856;2022-08-01T06:46:49;12.50;;;7.00;;
52838;SDS011;39219;53.678;9.856;2022-08-01T06:49:17;14.77;;;7.10;;
52838;SDS011;39219;53.678;9.856;2022-08-01T06:51:44;14.25;;;6.13;;
52838;SDS011;39219;53.678;9.856;2022-08-01T06:54:10;12.52;;;6.78;;
52838;SDS011;39219;53.678;9.856;2022-08-01T06:56:37;12.77;;;5.97;;
52838;SDS011;39219;53.678;9.856;2022-08-01T06:59:03;15.05;;;5.80;;
52838;SDS011;39219;53.678;9.856;2022-08-01T07:01:30;13.48;;;5.80;;
52838;SDS011;39219;53.678;9.856;2022-08-01T07:03:56;13.95;;;7.32;;
52838;SDS011;39219;53.678;9.856;2022-08-01T07:06:24;15.02;;;7.22;;
52838;SDS011;39219;53.678;9.856;2022-08-01T07:08:51;16.48;;;7.35;;
52838;SDS011;39219;53.678;9.856;2022-08-01T07:11:17;17.55;;;7.65;;
52838;SDS011;39219;53.678;9.856;2022-08-01T07:13:44;16.20;;;6.85;;
52838;SDS011;39219;53.678;9.856;2022-08-01T07:16:11;14.95;;;6.68;;
52838;SDS011;39219;53.678;9.856;2022-08-01T07:18:37;14.65;;;5.90;;
52838;SDS011;39219;53.678;9.856;2022-08-01T07:21:04;17.70;;;5.93;;
52838;SDS011;39219;53.678;9.856;2022-08-01T07:23:32;10.60;;;4.93;;
52838;SDS011;39219;53.678;9.856;2022-08-01T07:25:58;16.23;;;5.35;;
52838;SDS011;39219;53.678;9.856;2022-08-01T07:28:26;16.38;;;4.35;;
52838;SDS011;39219;53.678;9.856;2022-08-01T07:30:53;10.73;;;3.78;;
52838;SDS011;39219;53.678;9.856;2022-08-01T07:33:20;14.45;;;4.00;;
52838;SDS011;39219;53.678;9.856;2022-08-01T07:35:47;10.80;;;3.20;;
52838;SDS011;39219;53.678;9.856;2022-08-01T07:38:13;14.18;;;3.45;;
52838;SDS011;39219;53.678;9.856;2022-08-01T07:40:43;9.98;;;2.88;;
52838;SDS011;39219;53.678;9.856;2022-08-01T07:43:10;9.57;;;3.10;;
52838;SDS011;39219;53.678;9.856;2022-08-01T07:45:36;12.38;;;2.90;;
52838;SDS011;39219;53.678;9.856;2022-08-01T07:48:03;11.80;;;3.40;;
52838;SDS011;39219;53.678;9.856;2022-08-01T07:50:30;14.07;;;3.50;;
52838;SDS011;39219;53.678;9.856;2022-08-01T07:52:57;9.50;;;3.00;;
52838;SDS011;39219;53.678;9.856;2022-08-01T07:55:24;12.45;;;3.10;;
52838;SDS011;39219;53.678;9.856;2022-08-01T07:57:52;10.55;;;3.03;;
52838;SDS011;39219;53.678;9.856;2022-08-01T08:00:19;9.80;;;3.25;;
52838;SDS011;39219;53.678;9.856;2022-08-01T08:02:45;10.60;;;3.10;;
52838;SDS011;39219;53.678;9.856;2022-08-01T08:05:12;9.38;;;3.10;;
52838;SDS011;39219;53.678;9.856;2022-08-01T08:07:39;9.85;;;2.90;;
52838;SDS011;39219;53.678;9.856;2022-08-01T08:10:05;11.50;;;3.08;;
52838;SDS011;39219;53.678;9.856;2022-08-01T08:12:34;9.60;;;2.85;;
52838;SDS011;39219;53.678;9.856;2022-08-01T08:15:02;6.57;;;2.83;;
52838;SDS011;39219;53.678;9.856;2022-08-01T08:17:30;6.63;;;2.70;;
52838;SDS011;39219;53.678;9.856;2022-08-01T08:19:58;7.43;;;2.90;;
52838;SDS011;39219;53.678;9.856;2022-08-01T08:22:25;6.38;;;2.58;;
52838;SDS011;39219;53.678;9.856;2022-08-01T08:24:51;6.32;;;2.42;;
52838;SDS011;39219;53.678;9.856;2022-08-01T08:27:18;7.97;;;2.42;;
52838;SDS011;39219;53.678;9.856;2022-08-01T08:29:44;7.38;;;2.50;;
52838;SDS011;39219;53.678;9.856;2022-08-01T08:32:12;10.00;;;2.47;;
52838;SDS011;39219;53.678;9.856;2022-08-01T08:34:38;7.90;;;2.60;;
52838;SDS011;39219;53.678;9.856;2022-08-01T08:37:05;10.57;;;2.60;;
52838;SDS011;39219;53.678;9.856;2022-08-01T08:39:32;7.80;;;2.13;;
52838;SDS011;39219;53.678;9.856;2022-08-01T08:41:58;8.35;;;2.78;;
52838;SDS011;39219;53.678;9.856;2022-08-01T08:44:27;9.63;;;2.50;;
52838;SDS011;39219;53.678;9.856;2022-08-01T08:46:53;9.18;;;2.85;;
52838;SDS011;39219;53.678;9.856;2022-08-01T08:49:24;9.73;;;2.72;;
52838;SDS011;39219;53.678;9.856;2022-08-01T08:51:53;9.15;;;2.47;;
52838;SDS011;39219;53.678;9.856;2022-08-01T08:54:24;8.05;;;2.53;;
52838;SDS011;39219;53.678;9.856;2022-08-01T08:56:51;12.90;;;3.13;;
52838;SDS011;39219;53.678;9.856;2022-08-01T08:59:19;8.32;;;2.50;;
52838;SDS011;39219;53.678;9.856;2022-08-01T09:01:46;9.07;;;2.65;;
52838;SDS011;39219;53.678;9.856;2022-08-01T09:04:13;10.80;;;2.60;;
52838;SDS011;39219;53.678;9.856;2022-08-01T09:06:41;8.90;;;2.53;;
52838;SDS011;39219;53.678;9.856;2022-08-01T09:09:08;9.90;;;2.33;;
52838;SDS011;39219;53.678;9.856;2022-08-01T09:11:36;8.10;;;2.30;;
52838;SDS011;39219;53.678;9.856;2022-08-01T09:14:04;11.50;;;2.70;;
52838;SDS011;39219;53.678;9.856;2022-08-01T09:16:32;9.15;;;2.47;;
52838;SDS011;39219;53.678;9.856;2022-08-01T09:19:06;7.38;;;2.40;;
52838;SDS011;39219;53.678;9.856;2022-08-01T09:21:34;7.18;;;2.50;;
52838;SDS011;39219;53.678;9.856;2022-08-01T09:24:02;8.25;;;2.40;;
52838;SDS011;39219;53.678;9.856;2022-08-01T09:26:31;10.93;;;2.70;;
52838;SDS011;39219;53.678;9.856;2022-08-01T09:28:59;6.97;;;2.20;;
52838;SDS011;39219;53.678;9.856;2022-08-01T09:31:28;11.15;;;2.90;;
52838;SDS011;39219;53.678;9.856;2022-08-01T09:33:56;6.82;;;2.60;;
52838;SDS011;39219;53.678;9.856;2022-08-01T09:36:26;10.40;;;2.60;;
52838;SDS011;39219;53.678;9.856;2022-08-01T09:39:12;9.73;;;2.60;;
52838;SDS011;39219;53.678;9.856;2022-08-01T09:41:40;8.50;;;2.75;;
52838;SDS011;39219;53.678;9.856;2022-08-01T09:44:07;11.55;;;2.60;;
52838;SDS011;39219;53.678;9.856;2022-08-01T09:46:34;8.60;;;2.72;;
52838;SDS011;39219;53.678;9.856;2022-08-01T09:49:02;10.90;;;2.90;;
52838;SDS011;39219;53.678;9.856;2022-08-01T09:51:30;10.65;;;3.05;;
52838;SDS011;39219;53.678;9.856;2022-08-01T09:53:58;7.68;;;2.92;;
52838;SDS011;39219;53.678;9.856;2022-08-01T09:56:27;11.68;;;3.28;;
52838;SDS011;39219;53.678;9.856;2022-08-01T09:59:02;11.23;;;3.03;;
52838;SDS011;39219;53.678;9.856;2022-08-01T10:01:41;11.48;;;3.00;;
52838;SDS011;39219;53.678;9.856;2022-08-01T10:04:10;7.55;;;2.72;;
52838;SDS011;39219;53.678;9.856;2022-08-01T10:06:39;9.25;;;2.60;;
52838;SDS011;39219;53.678;9.856;2022-08-01T10:09:07;8.32;;;2.78;;
52838;SDS011;39219;53.678;9.856;2022-08-01T10:11:36;8.57;;;2.58;;
52838;SDS011;39219;53.678;9.856;2022-08-01T10:14:05;8.52;;;2.60;;
52838;SDS011;39219;53.678;9.856;2022-08-01T10:16:33;9.57;;;2.72;;
52838;SDS011;39219;53.678;9.856;2022-08-01T10:19:01;11.43;;;2.70;;
52838;SDS011;39219;53.678;9.856;2022-08-01T10:21:31;8.35;;;2.30;;
52838;SDS011;39219;53.678;9.856;2022-08-01T10:23:58;8.05;;;2.50;;
52838;SDS011;39219;53.678;9.856;2022-08-01T10:26:27;7.72;;;2.47;;
52838;SDS011;39219;53.678;9.856;2022-08-01T10:28:59;11.02;;;2.78;;
52838;SDS011;39219;53.678;9.856;2022-08-01T10:31:27;7.05;;;2.25;;
52838;SDS011;39219;53.678;9.856;2022-08-01T10:33:57;6.97;;;2.08;;
52838;SDS011;39219;53.678;9.856;2022-08-01T10:36:25;7.25;;;2.65;;
52838;SDS011;39219;53.678;9.856;2022-08-01T10:38:53;7.47;;;2.00;;
52838;SDS011;39219;53.678;9.856;2022-08-01T10:41:20;9.20;;;2.40;;
52838;SDS011;39219;53.678;9.856;2022-08-01T10:43:47;6.43;;;2.33;;
52838;SDS011;39219;53.678;9.856;2022-08-01T10:46:15;6.78;;;1.98;;
52838;SDS011;39219;53.678;9.856;2022-08-01T10:48:45;9.27;;;2.20;;
52838;SDS011;39219;53.678;9.856;2022-08-01T10:51:18;9.50;;;2.63;;
52838;SDS011;39219;53.678;9.856;2022-08-01T10:53:46;11.15;;;2.20;;
52838;SDS011;39219;53.678;9.856;2022-08-01T10:56:13;7.78;;;2.03;;
52838;SDS011;39219;53.678;9.856;2022-08-01T10:58:42;7.13;;;2.13;;
52838;SDS011;39219;53.678;9.856;2022-08-01T11:01:13;7.30;;;2.17;;
52838;SDS011;39219;53.678;9.856;2022-08-01T11:03:56;6.72;;;2.10;;
52838;SDS011;39219;53.678;9.856;2022-08-01T11:06:25;7.22;;;1.70;;
52838;SDS011;39219;53.678;9.856;2022-08-01T11:08:54;8.02;;;1.95;;
52838;SDS011;39219;53.678;9.856;2022-08-01T11:11:23;9.05;;;2.00;;
52838;SDS011;39219;53.678;9.856;2022-08-01T11:14:03;4.93;;;1.83;;
52838;SDS011;39219;53.678;9.856;2022-08-01T11:16:36;7.10;;;2.17;;
52838;SDS011;39219;53.678;9.856;2022-08-01T11:19:04;6.28;;;1.98;;
52838;SDS011;39219;53.678;9.856;2022-08-01T11:27:22;9.55;;;1.80;;
52838;SDS011;39219;53.678;9.856;2022-08-01T11:32:49;5.72;;;1.67;;
52838;SDS011;39219;53.678;9.856;2022-08-01T11:35:18;6.55;;;1.77;;
52838;SDS011;39219;53.678;9.856;2022-08-01T11:37:45;8.98;;;2.33;;
52838;SDS011;39219;53.678;9.856;2022-08-01T11:40:16;10.35;;;2.75;;
52838;SDS011;39219;53.678;9.856;2022-08-01T11:42:44;10.82;;;2.50;;
52838;SDS011;39219;53.678;9.856;2022-08-01T11:45:11;7.95;;;2.08;;
52838;SDS011;39219;53.678;9.856;2022-08-01T11:47:44;5.63;;;1.80;;
52838;SDS011;39219;53.678;9.856;2022-08-01T11:52:59;8.43;;;1.80;;
52838;SDS011;39219;53.678;9.856;2022-08-01T11:55:27;6.32;;;1.63;;
52838;SDS011;39219;53.678;9.856;2022-08-01T11:58:00;7.97;;;2.00;;
52838;SDS011;39219;53.678;9.856;2022-08-01T12:00:28;4.93;;;1.45;;
52838;SDS011;39219;53.678;9.856;2022-08-01T12:02:56;6.20;;;1.63;;
52838;SDS011;39219;53.678;9.856;2022-08-01T12:05:23;5.90;;;1.88;;
52838;SDS011;39219;53.678;9.856;2022-08-01T12:07:51;5.18;;;1.77;;
52838;SDS011;39219;53.678;9.856;2022-08-01T12:10:21;6.47;;;1.52;;
52838;SDS011;39219;53.678;9.856;2022-08-01T12:12:50;8.43;;;2.10;;
52838;SDS011;39219;53.678;9.856;2022-08-01T12:15:19;7.65;;;1.80;;
52838;SDS011;39219;53.678;9.856;2022-08-01T12:17:48;5.35;;;1.80;;
52838;SDS011;39219;53.678;9.856;2022-08-01T12:20:19;7.35;;;2.08;;
52838;SDS011;39219;53.678;9.856;2022-08-01T12:22:47;5.80;;;1.58;;
52838;SDS011;39219;53.678;9.856;2022-08-01T12:25:14;5.88;;;1.48;;
52838;SDS011;39219;53.678;9.856;2022-08-01T12:27:43;7.10;;;1.83;;
52838;SDS011;39219;53.678;9.856;2022-08-01T12:30:11;7.53;;;1.52;;
52838;SDS011;39219;53.678;9.856;2022-08-01T12:32:40;6.45;;;1.83;;
52838;SDS011;39219;53.678;9.856;2022-08-01T12:35:08;6.57;;;1.80;;
52838;SDS011;39219;53.678;9.856;2022-08-01T12:37:36;6.55;;;1.88;;
52838;SDS011;39219;53.678;9.856;2022-08-01T12:40:09;7.18;;;1.77;;
52838;SDS011;39219;53.678;9.856;2022-08-01T12:42:37;6.72;;;1.45;;
52838;SDS011;39219;53.678;9.856;2022-08-01T12:45:07;6.60;;;1.63;;
52838;SDS011;39219;53.678;9.856;2022-08-01T12:47:35;4.95;;;1.40;;
52838;SDS011;39219;53.678;9.856;2022-08-01T12:50:05;4.97;;;1.42;;
52838;SDS011;39219;53.678;9.856;2022-08-01T12:52:33;5.00;;;1.50;;
52838;SDS011;39219;53.678;9.856;2022-08-01T12:55:01;8.48;;;1.92;;
52838;SDS011;39219;53.678;9.856;2022-08-01T12:57:33;7.22;;;1.77;;
52838;SDS011;39219;53.678;9.856;2022-08-01T13:00:08;5.50;;;1.70;;
52838;SDS011;39219;53.678;9.856;2022-08-01T13:02:37;5.28;;;1.50;;
52838;SDS011;39219;53.678;9.856;2022-08-01T13:05:05;6.05;;;1.70;;
52838;SDS011;39219;53.678;9.856;2022-08-01T13:07:37;7.38;;;1.75;;
52838;SDS011;39219;53.678;9.856;2022-08-01T13:10:05;7.10;;;1.92;;
52838;SDS011;39219;53.678;9.856;2022-08-01T13:12:32;4.50;;;1.20;;
52838;SDS011;39219;53.678;9.856;2022-08-01T13:14:59;7.38;;;1.70;;
52838;SDS011;39219;53.678;9.856;2022-08-01T13:17:30;3.90;;;1.50;;
52838;SDS011;39219;53.678;9.856;2022-08-01T13:19:57;5.55;;;1.52;;
52838;SDS011;39219;53.678;9.856;2022-08-01T13:22:31;5.47;;;1.45;;
52838;SDS011;39219;53.678;9.856;2022-08-01T13:25:08;4.93;;;1.57;;
52838;SDS011;39219;53.678;9.856;2022-08-01T13:27:35;4.85;;;1.50;;
52838;SDS011;39219;53.678;9.856;2022-08-01T13:30:09;4.90;;;1.55;;
52838;SDS011;39219;53.678;9.856;2022-08-01T13:32:38;7.93;;;2.08;;
52838;SDS011;39219;53.678;9.856;2022-08-01T13:35:06;5.38;;;1.27;;
52838;SDS011;39219;53.678;9.856;2022-08-01T13:37:34;5.30;;;1.30;;
52838;SDS011;39219;53.678;9.856;2022-08-01T13:40:01;4.93;;;1.35;;
52838;SDS011;39219;53.678;9.856;2022-08-01T13:42:27;6.75;;;1.83;;
52838;SDS011;39219;53.678;9.856;2022-08-01T13:44:55;4.72;;;1.50;;
52838;SDS011;39219;53.678;9.856;2022-08-01T13:47:21;6.95;;;1.55;;
52838;SDS011;39219;53.678;9.856;2022-08-01T13:49:49;7.45;;;1.80;;
52838;SDS011;39219;53.678;9.856;2022-08-01T13:52:16;4.78;;;1.60;;
52838;SDS011;39219;53.678;9.856;2022-08-01T13:54:42;6.18;;;1.50;;
52838;SDS011;39219;53.678;9.856;2022-08-01T13:57:09;5.95;;;1.77;;
52838;SDS011;39219;53.678;9.856;2022-08-01T13:59:35;5.30;;;1.52;;
52838;SDS011;39219;53.678;9.856;2022-08-01T14:02:02;4.90;;;1.50;;
52838;SDS011;39219;53.678;9.856;2022-08-01T14:04:29;3.85;;;1.40;;
52838;SDS011;39219;53.678;9.856;2022-08-01T14:06:57;6.50;;;1.70;;
52838;SDS011;39219;53.678;9.856;2022-08-01T14:09:23;7.05;;;1.80;;
52838;SDS011;39219;53.678;9.856;2022-08-01T14:11:50;8.90;;;1.75;;
52838;SDS011;39219;53.678;9.856;2022-08-01T14:14:17;4.80;;;1.75;;
52838;SDS011;39219;53.678;9.856;2022-08-01T14:16:43;5.05;;;1.67;;
52838;SDS011;39219;53.678;9.856;2022-08-01T14:19:10;8.10;;;2.10;;
52838;SDS011;39219;53.678;9.856;2022-08-01T14:21:41;5.05;;;1.63;;
52838;SDS011;39219;53.678;9.856;2022-08-01T14:24:09;5.97;;;2.00;;
52838;SDS011;39219;53.678;9.856;2022-08-01T14:26:38;8.27;;;2.10;;
52838;SDS011;39219;53.678;9.856;2022-08-01T14:29:05;7.05;;;1.70;;
52838;SDS011;39219;53.678;9.856;2022-08-01T14:31:31;7.40;;;1.83;;
52838;SDS011;39219;53.678;9.856;2022-08-01T14:33:58;5.53;;;1.88;;
52838;SDS011;39219;53.678;9.856;2022-08-01T14:36:24;11.75;;;2.30;;
52838;SDS011;39219;53.678;9.856;2022-08-01T14:38:51;7.63;;;1.95;;
52838;SDS011;39219;53.678;9.856;2022-08-01T14:41:19;5.95;;;1.98;;
52838;SDS011;39219;53.678;9.856;2022-08-01T14:43:45;5.03;;;1.88;;
52838;SDS011;39219;53.678;9.856;2022-08-01T14:46:12;5.53;;;1.80;;
52838;SDS011;39219;53.678;9.856;2022-08-01T14:48:38;6.63;;;2.35;;
52838;SDS011;39219;53.678;9.856;2022-08-01T14:51:07;4.93;;;1.75;;
52838;SDS011;39219;53.678;9.856;2022-08-01T14:53:34;5.45;;;2.03;;
52838;SDS011;39219;53.678;9.856;2022-08-01T14:56:01;7.97;;;2.30;;
52838;SDS011;39219;53.678;9.856;2022-08-01T14:58:29;5.57;;;2.10;;